Aérodrome :
LOGIN :

S'inscrire | Disclaimer

   EN    FR    IT 

 










Légende :    VFR   VFR Marginal   IFR   IFR Intensif   IFR Très Intensif
Visi : 
Plafond : 
>= 8 km
>= 3000ft
5 à 8 km
1000 à 3000 ft
1500m à 5 km
500 à 1000 ft
800 à 1500m
200 à 500 ft
< 800m
< 200 ft
Symboles :   Orages  Brouillard  Fortes neiges  Fortes précipitations  Vent > 20 kt
SIGMETs :   Divers  Orages  Givrage  Turbulence  Onde Orograph.  Cendres Volcan.






- Altitude de l'aérodrome : 511 ft
- Code IATA : LHA


EDTL - Lahr Schwarzwald

DERNIER METAR :
  • 171320Z 18007KT 9999 -RA FEW025 BKN036 10/09 Q1019

METARs EXPIRÉS :
  • 171250Z 19005KT 150V220 9999 -RA OVC041 10/08 Q1019
  • 171220Z 16007KT 7000 -RA BKN035 10/08 Q1019
  • 171150Z 19007KT 7000 BKN035 10/09 Q1019
  • 171120Z 18006KT 9999 -RA BKN047 10/08 Q1019
  • 171050Z 21006KT 9999 -RA OVC045 10/08 Q1019
  • 171020Z 18006KT 9999 FEW020 BKN047 10/09 Q1019 RERA

TAF TAF EDTL
Valide du 17 à 12h jusqu'au 17 à 21h UTC


171100Z 1712/1721 21010KT 9999 BKN040
TEMPO 1712/1716 RA



MET'MAP, la Météo Aéronautique d'un coup d'oeil ! - Copyright ORBIFLY Décembre 2007 - Disclaimer

ORBIFLY MET'MAP TEAM :

Programmation & Développement : Alexandra Zaïnal
Sur une idée originale de : Baudouin d'Aumeries
Assistance à la programmation : Marc-Olivier Méhu
Soutien technique & logistique : Manuel Goepfert

Contact : metmap@orbifly.com




SOURCES & CREDITS :

   NOAA